Albany, Oregon
Current Conditions -  °F | °C
As of 5:35 AM on Saturday 20 Dec 2014 (Local Time) from KCVO Reporting Station
Overcast Overcast  
Wind Chill: 52°   Ceiling: 3900
Heat Index: 52°   Visibility: 5mi
Dew Point: 46°   Wind: 23mph
Humidity: 82%   Direction: 170°S
Pressure: 29.77"   Gusts: 30mph
Location:  44.64°N, 123.1°W
Report Text: KCVO 201335Z AUTO 17020G26KT 5SM FEW018 SCT031 OVC039 11/08 A2977 RMK AO1 P0004
Loading
Personal Weather Stations






























Interactive Weather Map New forecast layout! Learn more

10-Day Weather Forecast

Advertisements
Track Severe Weather on mobile